sensor_id;sensor_type;location;lat;lon;timestamp;P1;durP1;ratioP1;P2;durP2;ratioP2
146;SDS011;45999;48.808;9.182;2024-01-10T00:01:24;15.70;;;9.37;;
146;SDS011;45999;48.808;9.182;2024-01-10T00:03:54;15.90;;;8.87;;
146;SDS011;45999;48.808;9.182;2024-01-10T00:06:21;13.33;;;8.87;;
146;SDS011;45999;48.808;9.182;2024-01-10T00:08:48;15.40;;;9.27;;
146;SDS011;45999;48.808;9.182;2024-01-10T00:11:14;15.50;;;9.83;;
146;SDS011;45999;48.808;9.182;2024-01-10T00:13:41;16.30;;;9.73;;
146;SDS011;45999;48.808;9.182;2024-01-10T00:16:08;14.33;;;8.73;;
146;SDS011;45999;48.808;9.182;2024-01-10T00:18:38;17.40;;;9.57;;
146;SDS011;45999;48.808;9.182;2024-01-10T00:21:06;15.13;;;9.37;;
146;SDS011;45999;48.808;9.182;2024-01-10T00:23:33;14.20;;;9.37;;
146;SDS011;45999;48.808;9.182;2024-01-10T00:25:59;15.87;;;10.00;;
146;SDS011;45999;48.808;9.182;2024-01-10T00:28:26;14.30;;;9.73;;
146;SDS011;45999;48.808;9.182;2024-01-10T00:30:52;12.60;;;8.87;;
146;SDS011;45999;48.808;9.182;2024-01-10T00:33:18;15.80;;;9.37;;
146;SDS011;45999;48.808;9.182;2024-01-10T00:35:45;17.17;;;9.70;;
146;SDS011;45999;48.808;9.182;2024-01-10T00:38:13;14.67;;;9.47;;
146;SDS011;45999;48.808;9.182;2024-01-10T00:40:39;14.63;;;8.60;;
146;SDS011;45999;48.808;9.182;2024-01-10T00:43:06;16.57;;;9.43;;
146;SDS011;45999;48.808;9.182;2024-01-10T00:45:33;17.77;;;9.50;;
146;SDS011;45999;48.808;9.182;2024-01-10T00:47:59;15.50;;;8.40;;
146;SDS011;45999;48.808;9.182;2024-01-10T00:50:26;13.03;;;8.60;;
146;SDS011;45999;48.808;9.182;2024-01-10T00:52:52;15.13;;;8.53;;
146;SDS011;45999;48.808;9.182;2024-01-10T00:55:19;12.83;;;8.33;;
146;SDS011;45999;48.808;9.182;2024-01-10T00:57:45;13.30;;;8.67;;
146;SDS011;45999;48.808;9.182;2024-01-10T01:00:11;13.23;;;8.70;;
146;SDS011;45999;48.808;9.182;2024-01-10T01:02:38;13.00;;;8.90;;
146;SDS011;45999;48.808;9.182;2024-01-10T01:05:05;13.63;;;8.53;;
146;SDS011;45999;48.808;9.182;2024-01-10T01:07:33;12.90;;;7.97;;
146;SDS011;45999;48.808;9.182;2024-01-10T01:09:59;13.90;;;8.47;;
146;SDS011;45999;48.808;9.182;2024-01-10T01:12:26;11.70;;;7.73;;
146;SDS011;45999;48.808;9.182;2024-01-10T01:14:53;11.60;;;7.80;;
146;SDS011;45999;48.808;9.182;2024-01-10T01:17:19;12.07;;;8.50;;
146;SDS011;45999;48.808;9.182;2024-01-10T01:19:45;12.90;;;8.10;;
146;SDS011;45999;48.808;9.182;2024-01-10T01:22:12;13.50;;;8.13;;
146;SDS011;45999;48.808;9.182;2024-01-10T01:24:38;12.47;;;8.10;;
146;SDS011;45999;48.808;9.182;2024-01-10T01:27:04;11.70;;;7.90;;
146;SDS011;45999;48.808;9.182;2024-01-10T01:29:31;13.87;;;8.03;;
146;SDS011;45999;48.808;9.182;2024-01-10T01:31:57;12.70;;;7.77;;
146;SDS011;45999;48.808;9.182;2024-01-10T01:34:23;12.90;;;8.40;;
146;SDS011;45999;48.808;9.182;2024-01-10T01:36:50;14.43;;;8.20;;
146;SDS011;45999;48.808;9.182;2024-01-10T01:39:16;13.67;;;8.27;;
146;SDS011;45999;48.808;9.182;2024-01-10T01:41:43;12.33;;;8.10;;
146;SDS011;45999;48.808;9.182;2024-01-10T01:44:10;13.63;;;8.70;;
146;SDS011;45999;48.808;9.182;2024-01-10T01:46:36;12.97;;;7.53;;
146;SDS011;45999;48.808;9.182;2024-01-10T01:49:05;13.57;;;7.90;;
146;SDS011;45999;48.808;9.182;2024-01-10T01:51:32;13.60;;;8.10;;
146;SDS011;45999;48.808;9.182;2024-01-10T01:54:02;12.37;;;7.90;;
146;SDS011;45999;48.808;9.182;2024-01-10T01:56:30;14.00;;;8.77;;
146;SDS011;45999;48.808;9.182;2024-01-10T01:58:56;11.70;;;8.10;;
146;SDS011;45999;48.808;9.182;2024-01-10T02:01:22;15.27;;;8.70;;
146;SDS011;45999;48.808;9.182;2024-01-10T02:03:49;10.93;;;7.60;;
146;SDS011;45999;48.808;9.182;2024-01-10T02:06:15;13.63;;;8.23;;
146;SDS011;45999;48.808;9.182;2024-01-10T02:08:42;13.07;;;8.17;;
146;SDS011;45999;48.808;9.182;2024-01-10T02:11:08;13.77;;;8.87;;
146;SDS011;45999;48.808;9.182;2024-01-10T02:13:35;12.07;;;7.90;;
146;SDS011;45999;48.808;9.182;2024-01-10T02:16:03;15.60;;;8.77;;
146;SDS011;45999;48.808;9.182;2024-01-10T02:18:30;13.50;;;8.37;;
146;SDS011;45999;48.808;9.182;2024-01-10T02:20:56;13.40;;;8.00;;
146;SDS011;45999;48.808;9.182;2024-01-10T02:23:23;13.10;;;8.07;;
146;SDS011;45999;48.808;9.182;2024-01-10T02:25:49;14.27;;;8.83;;
146;SDS011;45999;48.808;9.182;2024-01-10T02:28:15;14.70;;;8.37;;
146;SDS011;45999;48.808;9.182;2024-01-10T02:30:42;14.50;;;8.70;;
146;SDS011;45999;48.808;9.182;2024-01-10T02:33:08;13.50;;;8.57;;
146;SDS011;45999;48.808;9.182;2024-01-10T02:35:35;13.33;;;8.67;;
146;SDS011;45999;48.808;9.182;2024-01-10T02:38:01;14.13;;;8.53;;
146;SDS011;45999;48.808;9.182;2024-01-10T02:40:27;13.97;;;9.10;;
146;SDS011;45999;48.808;9.182;2024-01-10T02:42:54;14.10;;;9.17;;
146;SDS011;45999;48.808;9.182;2024-01-10T02:45:20;14.43;;;8.80;;
146;SDS011;45999;48.808;9.182;2024-01-10T02:47:46;11.77;;;8.83;;
146;SDS011;45999;48.808;9.182;2024-01-10T02:50:13;14.27;;;8.73;;
146;SDS011;45999;48.808;9.182;2024-01-10T02:52:39;13.70;;;8.90;;
146;SDS011;45999;48.808;9.182;2024-01-10T02:55:06;12.90;;;8.50;;
146;SDS011;45999;48.808;9.182;2024-01-10T02:57:32;13.70;;;8.63;;
146;SDS011;45999;48.808;9.182;2024-01-10T02:59:59;14.57;;;8.90;;
146;SDS011;45999;48.808;9.182;2024-01-10T03:02:25;16.07;;;8.87;;
146;SDS011;45999;48.808;9.182;2024-01-10T03:04:51;13.70;;;8.63;;
146;SDS011;45999;48.808;9.182;2024-01-10T03:07:18;14.27;;;8.73;;
146;SDS011;45999;48.808;9.182;2024-01-10T03:09:44;13.97;;;8.30;;
146;SDS011;45999;48.808;9.182;2024-01-10T03:12:11;12.47;;;8.40;;
146;SDS011;45999;48.808;9.182;2024-01-10T03:14:37;18.50;;;9.13;;
146;SDS011;45999;48.808;9.182;2024-01-10T03:17:04;12.90;;;8.50;;
146;SDS011;45999;48.808;9.182;2024-01-10T03:19:30;12.73;;;7.80;;
146;SDS011;45999;48.808;9.182;2024-01-10T03:21:57;14.20;;;8.43;;
146;SDS011;45999;48.808;9.182;2024-01-10T03:24:23;12.73;;;7.63;;
146;SDS011;45999;48.808;9.182;2024-01-10T03:26:52;12.93;;;7.97;;
146;SDS011;45999;48.808;9.182;2024-01-10T03:29:18;10.90;;;7.47;;
146;SDS011;45999;48.808;9.182;2024-01-10T03:31:44;11.57;;;7.90;;
146;SDS011;45999;48.808;9.182;2024-01-10T03:34:11;12.70;;;7.73;;
146;SDS011;45999;48.808;9.182;2024-01-10T03:36:37;11.00;;;8.07;;
146;SDS011;45999;48.808;9.182;2024-01-10T03:39:03;14.37;;;9.07;;
146;SDS011;45999;48.808;9.182;2024-01-10T03:41:30;13.40;;;7.80;;
146;SDS011;45999;48.808;9.182;2024-01-10T03:43:56;12.17;;;8.33;;
146;SDS011;45999;48.808;9.182;2024-01-10T03:46:22;12.57;;;7.80;;
146;SDS011;45999;48.808;9.182;2024-01-10T03:48:49;10.63;;;7.53;;
146;SDS011;45999;48.808;9.182;2024-01-10T03:51:17;14.67;;;7.93;;
146;SDS011;45999;48.808;9.182;2024-01-10T03:53:44;13.13;;;8.77;;
146;SDS011;45999;48.808;9.182;2024-01-10T03:56:11;11.33;;;7.43;;
146;SDS011;45999;48.808;9.182;2024-01-10T03:58:39;15.70;;;8.77;;
146;SDS011;45999;48.808;9.182;2024-01-10T04:01:06;12.77;;;7.43;;
146;SDS011;45999;48.808;9.182;2024-01-10T04:03:35;12.17;;;8.37;;
146;SDS011;45999;48.808;9.182;2024-01-10T04:06:02;12.97;;;8.17;;
146;SDS011;45999;48.808;9.182;2024-01-10T04:08:29;14.37;;;7.87;;
146;SDS011;45999;48.808;9.182;2024-01-10T04:10:55;14.17;;;8.57;;
146;SDS011;45999;48.808;9.182;2024-01-10T04:13:22;12.47;;;8.23;;
146;SDS011;45999;48.808;9.182;2024-01-10T04:15:49;15.13;;;8.60;;
146;SDS011;45999;48.808;9.182;2024-01-10T04:18:15;12.87;;;8.37;;
146;SDS011;45999;48.808;9.182;2024-01-10T04:20:42;14.90;;;8.77;;
146;SDS011;45999;48.808;9.182;2024-01-10T04:23:09;11.57;;;8.80;;
146;SDS011;45999;48.808;9.182;2024-01-10T04:25:35;13.43;;;8.97;;
146;SDS011;45999;48.808;9.182;2024-01-10T04:28:01;14.67;;;8.60;;
146;SDS011;45999;48.808;9.182;2024-01-10T04:30:28;13.33;;;8.40;;
146;SDS011;45999;48.808;9.182;2024-01-10T04:32:54;12.57;;;7.60;;
146;SDS011;45999;48.808;9.182;2024-01-10T04:35:21;12.57;;;9.00;;
146;SDS011;45999;48.808;9.182;2024-01-10T04:37:47;13.83;;;8.50;;
146;SDS011;45999;48.808;9.182;2024-01-10T04:40:14;16.03;;;8.73;;
146;SDS011;45999;48.808;9.182;2024-01-10T04:42:40;13.70;;;7.97;;
146;SDS011;45999;48.808;9.182;2024-01-10T04:45:07;11.70;;;7.70;;
146;SDS011;45999;48.808;9.182;2024-01-10T04:47:33;13.27;;;8.33;;
146;SDS011;45999;48.808;9.182;2024-01-10T04:50:00;14.37;;;9.03;;
146;SDS011;45999;48.808;9.182;2024-01-10T04:52:26;14.33;;;8.47;;
146;SDS011;45999;48.808;9.182;2024-01-10T04:54:52;15.90;;;8.43;;
146;SDS011;45999;48.808;9.182;2024-01-10T04:57:19;12.70;;;8.23;;
146;SDS011;45999;48.808;9.182;2024-01-10T04:59:45;14.40;;;9.10;;
146;SDS011;45999;48.808;9.182;2024-01-10T05:02:12;11.93;;;8.13;;
146;SDS011;45999;48.808;9.182;2024-01-10T05:04:38;13.70;;;8.83;;
146;SDS011;45999;48.808;9.182;2024-01-10T05:07:05;11.50;;;8.03;;
146;SDS011;45999;48.808;9.182;2024-01-10T05:09:31;12.67;;;8.07;;
146;SDS011;45999;48.808;9.182;2024-01-10T05:11:58;13.90;;;8.60;;
146;SDS011;45999;48.808;9.182;2024-01-10T05:14:24;15.20;;;9.07;;
146;SDS011;45999;48.808;9.182;2024-01-10T05:16:50;15.73;;;8.70;;
146;SDS011;45999;48.808;9.182;2024-01-10T05:19:18;15.53;;;8.93;;
146;SDS011;45999;48.808;9.182;2024-01-10T05:21:44;11.93;;;8.67;;
146;SDS011;45999;48.808;9.182;2024-01-10T05:24:11;12.57;;;9.10;;
146;SDS011;45999;48.808;9.182;2024-01-10T05:26:37;16.43;;;8.87;;
146;SDS011;45999;48.808;9.182;2024-01-10T05:29:04;15.07;;;9.37;;
146;SDS011;45999;48.808;9.182;2024-01-10T05:31:30;17.73;;;9.40;;
146;SDS011;45999;48.808;9.182;2024-01-10T05:33:57;14.57;;;8.70;;
146;SDS011;45999;48.808;9.182;2024-01-10T05:36:23;14.23;;;8.97;;
146;SDS011;45999;48.808;9.182;2024-01-10T05:38:49;15.93;;;9.67;;
146;SDS011;45999;48.808;9.182;2024-01-10T05:41:17;16.37;;;9.53;;
146;SDS011;45999;48.808;9.182;2024-01-10T05:43:43;17.10;;;9.47;;
146;SDS011;45999;48.808;9.182;2024-01-10T05:46:10;14.37;;;9.50;;
146;SDS011;45999;48.808;9.182;2024-01-10T05:48:36;14.57;;;9.60;;
146;SDS011;45999;48.808;9.182;2024-01-10T05:51:03;15.57;;;9.50;;
146;SDS011;45999;48.808;9.182;2024-01-10T05:53:29;13.47;;;8.90;;
146;SDS011;45999;48.808;9.182;2024-01-10T05:55:56;17.07;;;9.90;;
146;SDS011;45999;48.808;9.182;2024-01-10T05:58:22;15.43;;;9.67;;
146;SDS011;45999;48.808;9.182;2024-01-10T06:00:48;15.17;;;9.33;;
146;SDS011;45999;48.808;9.182;2024-01-10T06:03:15;14.07;;;9.30;;
146;SDS011;45999;48.808;9.182;2024-01-10T06:05:43;14.57;;;9.17;;
146;SDS011;45999;48.808;9.182;2024-01-10T06:08:15;16.67;;;9.37;;
146;SDS011;45999;48.808;9.182;2024-01-10T06:10:43;13.60;;;9.10;;
146;SDS011;45999;48.808;9.182;2024-01-10T06:13:11;17.40;;;9.73;;
146;SDS011;45999;48.808;9.182;2024-01-10T06:15:40;14.20;;;9.63;;
146;SDS011;45999;48.808;9.182;2024-01-10T06:18:10;18.47;;;9.83;;
146;SDS011;45999;48.808;9.182;2024-01-10T06:20:42;16.37;;;9.13;;
146;SDS011;45999;48.808;9.182;2024-01-10T06:23:14;18.53;;;9.37;;
146;SDS011;45999;48.808;9.182;2024-01-10T06:25:46;16.23;;;9.27;;
146;SDS011;45999;48.808;9.182;2024-01-10T06:28:14;14.50;;;9.10;;
146;SDS011;45999;48.808;9.182;2024-01-10T06:30:41;17.10;;;9.80;;
146;SDS011;45999;48.808;9.182;2024-01-10T06:33:07;13.77;;;9.27;;
146;SDS011;45999;48.808;9.182;2024-01-10T06:35:34;18.40;;;10.50;;
146;SDS011;45999;48.808;9.182;2024-01-10T06:38:00;16.07;;;9.67;;
146;SDS011;45999;48.808;9.182;2024-01-10T06:40:28;14.70;;;9.37;;
146;SDS011;45999;48.808;9.182;2024-01-10T06:42:55;14.40;;;9.20;;
146;SDS011;45999;48.808;9.182;2024-01-10T06:45:22;18.53;;;10.20;;
146;SDS011;45999;48.808;9.182;2024-01-10T06:47:48;17.07;;;9.63;;
146;SDS011;45999;48.808;9.182;2024-01-10T06:50:18;15.50;;;9.20;;
146;SDS011;45999;48.808;9.182;2024-01-10T06:52:59;13.53;;;8.73;;
146;SDS011;45999;48.808;9.182;2024-01-10T06:55:29;13.30;;;8.97;;
146;SDS011;45999;48.808;9.182;2024-01-10T06:58:01;15.47;;;9.67;;
146;SDS011;45999;48.808;9.182;2024-01-10T07:00:31;13.30;;;9.47;;
146;SDS011;45999;48.808;9.182;2024-01-10T07:03:04;17.40;;;9.10;;
146;SDS011;45999;48.808;9.182;2024-01-10T07:05:33;16.20;;;10.30;;
146;SDS011;45999;48.808;9.182;2024-01-10T07:08:02;14.97;;;10.23;;
146;SDS011;45999;48.808;9.182;2024-01-10T07:10:32;15.57;;;9.80;;
146;SDS011;45999;48.808;9.182;2024-01-10T07:13:00;15.53;;;9.70;;
146;SDS011;45999;48.808;9.182;2024-01-10T07:15:29;16.93;;;10.10;;
146;SDS011;45999;48.808;9.182;2024-01-10T07:17:58;18.23;;;10.93;;
146;SDS011;45999;48.808;9.182;2024-01-10T07:20:27;20.10;;;10.57;;
146;SDS011;45999;48.808;9.182;2024-01-10T07:22:55;20.27;;;11.03;;
146;SDS011;45999;48.808;9.182;2024-01-10T07:25:21;18.43;;;9.80;;
146;SDS011;45999;48.808;9.182;2024-01-10T07:27:50;21.00;;;10.87;;
146;SDS011;45999;48.808;9.182;2024-01-10T07:30:17;18.40;;;10.20;;
146;SDS011;45999;48.808;9.182;2024-01-10T07:32:44;15.70;;;10.00;;
146;SDS011;45999;48.808;9.182;2024-01-10T07:35:12;15.93;;;10.23;;
146;SDS011;45999;48.808;9.182;2024-01-10T07:37:40;17.57;;;10.33;;
146;SDS011;45999;48.808;9.182;2024-01-10T07:40:07;15.93;;;10.10;;
146;SDS011;45999;48.808;9.182;2024-01-10T07:42:35;21.30;;;10.53;;
146;SDS011;45999;48.808;9.182;2024-01-10T07:45:03;16.43;;;10.47;;
146;SDS011;45999;48.808;9.182;2024-01-10T07:47:30;19.27;;;10.53;;
146;SDS011;45999;48.808;9.182;2024-01-10T07:49:59;18.93;;;10.87;;
146;SDS011;45999;48.808;9.182;2024-01-10T07:52:25;15.03;;;10.07;;
146;SDS011;45999;48.808;9.182;2024-01-10T07:54:52;16.90;;;10.60;;
146;SDS011;45999;48.808;9.182;2024-01-10T07:57:18;15.53;;;10.33;;
146;SDS011;45999;48.808;9.182;2024-01-10T07:59:45;16.73;;;11.37;;
146;SDS011;45999;48.808;9.182;2024-01-10T08:02:11;15.00;;;9.67;;
146;SDS011;45999;48.808;9.182;2024-01-10T08:04:38;18.10;;;10.63;;
146;SDS011;45999;48.808;9.182;2024-01-10T08:07:04;15.93;;;10.47;;
146;SDS011;45999;48.808;9.182;2024-01-10T08:09:30;20.43;;;10.77;;
146;SDS011;45999;48.808;9.182;2024-01-10T08:11:57;19.60;;;10.90;;
146;SDS011;45999;48.808;9.182;2024-01-10T08:14:23;17.20;;;10.40;;
146;SDS011;45999;48.808;9.182;2024-01-10T08:16:49;16.17;;;10.03;;
146;SDS011;45999;48.808;9.182;2024-01-10T08:19:18;17.07;;;10.53;;
146;SDS011;45999;48.808;9.182;2024-01-10T08:21:44;16.10;;;11.23;;
146;SDS011;45999;48.808;9.182;2024-01-10T08:24:11;15.30;;;10.50;;
146;SDS011;45999;48.808;9.182;2024-01-10T08:26:37;15.50;;;10.43;;
146;SDS011;45999;48.808;9.182;2024-01-10T08:29:03;16.23;;;10.60;;
146;SDS011;45999;48.808;9.182;2024-01-10T08:31:30;17.07;;;10.93;;
146;SDS011;45999;48.808;9.182;2024-01-10T08:33:56;16.80;;;10.93;;
146;SDS011;45999;48.808;9.182;2024-01-10T08:36:22;17.50;;;10.97;;
146;SDS011;45999;48.808;9.182;2024-01-10T08:38:50;17.00;;;11.23;;
146;SDS011;45999;48.808;9.182;2024-01-10T08:41:16;18.87;;;10.97;;
146;SDS011;45999;48.808;9.182;2024-01-10T08:43:44;18.23;;;11.50;;
146;SDS011;45999;48.808;9.182;2024-01-10T08:46:11;18.27;;;11.13;;
146;SDS011;45999;48.808;9.182;2024-01-10T08:48:38;17.40;;;11.37;;
146;SDS011;45999;48.808;9.182;2024-01-10T08:51:04;17.40;;;11.00;;
146;SDS011;45999;48.808;9.182;2024-01-10T08:53:31;19.73;;;12.23;;
146;SDS011;45999;48.808;9.182;2024-01-10T08:55:57;22.53;;;12.53;;
146;SDS011;45999;48.808;9.182;2024-01-10T08:58:24;20.60;;;11.73;;
146;SDS011;45999;48.808;9.182;2024-01-10T09:00:50;17.63;;;11.50;;
146;SDS011;45999;48.808;9.182;2024-01-10T09:03:16;16.80;;;11.07;;
146;SDS011;45999;48.808;9.182;2024-01-10T09:05:43;22.37;;;13.03;;
146;SDS011;45999;48.808;9.182;2024-01-10T09:08:09;20.03;;;12.80;;
146;SDS011;45999;48.808;9.182;2024-01-10T09:10:36;21.67;;;12.63;;
146;SDS011;45999;48.808;9.182;2024-01-10T09:13:03;23.43;;;13.03;;
146;SDS011;45999;48.808;9.182;2024-01-10T09:15:29;18.93;;;13.20;;
146;SDS011;45999;48.808;9.182;2024-01-10T09:17:56;19.13;;;12.47;;
146;SDS011;45999;48.808;9.182;2024-01-10T09:20:21;19.03;;;12.73;;
146;SDS011;45999;48.808;9.182;2024-01-10T09:22:48;21.87;;;13.93;;
146;SDS011;45999;48.808;9.182;2024-01-10T09:25:15;21.83;;;12.93;;
146;SDS011;45999;48.808;9.182;2024-01-10T09:27:42;19.77;;;13.40;;
146;SDS011;45999;48.808;9.182;2024-01-10T09:30:10;20.57;;;14.13;;
146;SDS011;45999;48.808;9.182;2024-01-10T09:32:37;24.63;;;13.93;;
146;SDS011;45999;48.808;9.182;2024-01-10T09:35:03;25.00;;;14.00;;
146;SDS011;45999;48.808;9.182;2024-01-10T09:37:30;22.33;;;13.27;;
146;SDS011;45999;48.808;9.182;2024-01-10T09:39:56;22.43;;;13.17;;
146;SDS011;45999;48.808;9.182;2024-01-10T09:42:23;25.67;;;14.07;;
146;SDS011;45999;48.808;9.182;2024-01-10T09:44:50;25.30;;;14.17;;
146;SDS011;45999;48.808;9.182;2024-01-10T09:47:18;23.90;;;14.00;;
146;SDS011;45999;48.808;9.182;2024-01-10T09:49:46;25.97;;;13.60;;
146;SDS011;45999;48.808;9.182;2024-01-10T09:52:16;22.33;;;13.47;;
146;SDS011;45999;48.808;9.182;2024-01-10T09:54:55;20.40;;;13.63;;
146;SDS011;45999;48.808;9.182;2024-01-10T09:57:25;26.33;;;13.60;;
146;SDS011;45999;48.808;9.182;2024-01-10T09:59:52;22.97;;;14.00;;
146;SDS011;45999;48.808;9.182;2024-01-10T10:02:19;24.33;;;14.23;;
146;SDS011;45999;48.808;9.182;2024-01-10T10:07:23;20.67;;;14.17;;
146;SDS011;45999;48.808;9.182;2024-01-10T10:09:49;22.03;;;14.27;;
146;SDS011;45999;48.808;9.182;2024-01-10T10:12:18;23.43;;;15.20;;
146;SDS011;45999;48.808;9.182;2024-01-10T10:14:44;22.67;;;14.63;;
146;SDS011;45999;48.808;9.182;2024-01-10T10:17:17;23.67;;;14.57;;
146;SDS011;45999;48.808;9.182;2024-01-10T10:19:44;20.70;;;14.80;;
146;SDS011;45999;48.808;9.182;2024-01-10T10:22:10;23.47;;;15.27;;
146;SDS011;45999;48.808;9.182;2024-01-10T10:24:37;21.73;;;14.53;;
146;SDS011;45999;48.808;9.182;2024-01-10T10:27:10;23.53;;;15.27;;
146;SDS011;45999;48.808;9.182;2024-01-10T10:29:37;21.00;;;14.53;;
146;SDS011;45999;48.808;9.182;2024-01-10T10:32:04;25.10;;;16.60;;
146;SDS011;45999;48.808;9.182;2024-01-10T10:34:31;20.47;;;14.70;;
146;SDS011;45999;48.808;9.182;2024-01-10T10:36:58;25.07;;;15.67;;
146;SDS011;45999;48.808;9.182;2024-01-10T10:39:24;21.90;;;16.00;;
146;SDS011;45999;48.808;9.182;2024-01-10T10:41:51;23.23;;;15.43;;
146;SDS011;45999;48.808;9.182;2024-01-10T10:44:19;22.80;;;15.67;;
146;SDS011;45999;48.808;9.182;2024-01-10T10:46:52;23.60;;;16.97;;
146;SDS011;45999;48.808;9.182;2024-01-10T10:49:22;22.00;;;15.33;;
146;SDS011;45999;48.808;9.182;2024-01-10T10:51:57;22.97;;;15.73;;
146;SDS011;45999;48.808;9.182;2024-01-10T10:54:28;24.17;;;16.00;;
146;SDS011;45999;48.808;9.182;2024-01-10T10:56:57;21.70;;;15.33;;
146;SDS011;45999;48.808;9.182;2024-01-10T10:59:25;23.33;;;16.40;;
146;SDS011;45999;48.808;9.182;2024-01-10T11:01:53;25.33;;;16.10;;
146;SDS011;45999;48.808;9.182;2024-01-10T11:04:21;23.30;;;15.57;;
146;SDS011;45999;48.808;9.182;2024-01-10T11:06:48;23.87;;;16.17;;
146;SDS011;45999;48.808;9.182;2024-01-10T11:09:15;24.50;;;16.40;;
146;SDS011;45999;48.808;9.182;2024-01-10T11:14:38;25.70;;;16.73;;
146;SDS011;45999;48.808;9.182;2024-01-10T11:25:50;27.83;;;16.53;;
146;SDS011;45999;48.808;9.182;2024-01-10T11:28:17;23.87;;;15.37;;
146;SDS011;45999;48.808;9.182;2024-01-10T11:30:50;25.43;;;17.10;;
146;SDS011;45999;48.808;9.182;2024-01-10T11:41:29;24.27;;;17.37;;
146;SDS011;45999;48.808;9.182;2024-01-10T11:46:49;27.30;;;16.13;;
146;SDS011;45999;48.808;9.182;2024-01-10T11:49:18;23.40;;;16.13;;
146;SDS011;45999;48.808;9.182;2024-01-10T11:51:46;23.57;;;17.10;;
146;SDS011;45999;48.808;9.182;2024-01-10T11:54:56;27.93;;;18.23;;
146;SDS011;45999;48.808;9.182;2024-01-10T11:57:19;24.50;;;16.73;;
146;SDS011;45999;48.808;9.182;2024-01-10T11:59:50;24.50;;;17.70;;
146;SDS011;45999;48.808;9.182;2024-01-10T12:02:18;25.53;;;17.10;;
146;SDS011;45999;48.808;9.182;2024-01-10T12:04:45;23.87;;;16.67;;
146;SDS011;45999;48.808;9.182;2024-01-10T12:07:13;26.27;;;17.90;;
146;SDS011;45999;48.808;9.182;2024-01-10T12:09:40;25.37;;;18.07;;
146;SDS011;45999;48.808;9.182;2024-01-10T12:12:08;29.80;;;18.67;;
146;SDS011;45999;48.808;9.182;2024-01-10T12:14:35;26.00;;;18.80;;
146;SDS011;45999;48.808;9.182;2024-01-10T12:17:01;25.40;;;17.47;;
146;SDS011;45999;48.808;9.182;2024-01-10T12:19:29;25.37;;;18.53;;
146;SDS011;45999;48.808;9.182;2024-01-10T12:21:56;25.97;;;17.83;;
146;SDS011;45999;48.808;9.182;2024-01-10T12:24:23;27.27;;;18.57;;
146;SDS011;45999;48.808;9.182;2024-01-10T12:26:49;25.77;;;18.33;;
146;SDS011;45999;48.808;9.182;2024-01-10T12:29:17;24.67;;;16.70;;
146;SDS011;45999;48.808;9.182;2024-01-10T12:31:45;28.57;;;18.00;;
146;SDS011;45999;48.808;9.182;2024-01-10T12:34:12;26.60;;;16.60;;
146;SDS011;45999;48.808;9.182;2024-01-10T12:36:39;28.23;;;17.93;;
146;SDS011;45999;48.808;9.182;2024-01-10T12:39:05;26.57;;;18.37;;
146;SDS011;45999;48.808;9.182;2024-01-10T12:41:32;27.27;;;18.47;;
146;SDS011;45999;48.808;9.182;2024-01-10T12:44:00;25.90;;;17.43;;
146;SDS011;45999;48.808;9.182;2024-01-10T12:46:28;26.63;;;18.40;;
146;SDS011;45999;48.808;9.182;2024-01-10T12:49:02;25.70;;;17.27;;
146;SDS011;45999;48.808;9.182;2024-01-10T12:51:33;26.83;;;18.53;;
146;SDS011;45999;48.808;9.182;2024-01-10T12:54:01;26.43;;;18.27;;
146;SDS011;45999;48.808;9.182;2024-01-10T12:56:29;26.90;;;18.30;;
146;SDS011;45999;48.808;9.182;2024-01-10T12:58:55;24.20;;;17.27;;
146;SDS011;45999;48.808;9.182;2024-01-10T13:01:23;25.97;;;18.00;;
146;SDS011;45999;48.808;9.182;2024-01-10T13:03:50;25.87;;;17.30;;
146;SDS011;45999;48.808;9.182;2024-01-10T13:06:17;24.23;;;17.53;;
146;SDS011;45999;48.808;9.182;2024-01-10T13:08:47;25.57;;;17.50;;
146;SDS011;45999;48.808;9.182;2024-01-10T13:11:14;24.33;;;17.37;;
146;SDS011;45999;48.808;9.182;2024-01-10T13:13:40;24.03;;;17.97;;
146;SDS011;45999;48.808;9.182;2024-01-10T13:16:08;22.57;;;18.03;;
146;SDS011;45999;48.808;9.182;2024-01-10T13:18:36;26.47;;;18.27;;
146;SDS011;45999;48.808;9.182;2024-01-10T13:21:03;25.60;;;18.10;;
146;SDS011;45999;48.808;9.182;2024-01-10T13:23:30;26.63;;;16.93;;
146;SDS011;45999;48.808;9.182;2024-01-10T13:25:57;26.33;;;17.37;;
146;SDS011;45999;48.808;9.182;2024-01-10T13:28:24;27.47;;;18.23;;
146;SDS011;45999;48.808;9.182;2024-01-10T13:30:50;30.70;;;18.63;;
146;SDS011;45999;48.808;9.182;2024-01-10T13:33:17;26.70;;;17.77;;
146;SDS011;45999;48.808;9.182;2024-01-10T13:35:44;27.80;;;18.27;;
146;SDS011;45999;48.808;9.182;2024-01-10T13:38:11;26.23;;;17.90;;
146;SDS011;45999;48.808;9.182;2024-01-10T13:40:37;28.53;;;18.60;;
146;SDS011;45999;48.808;9.182;2024-01-10T13:43:03;28.37;;;17.50;;
146;SDS011;45999;48.808;9.182;2024-01-10T13:45:30;25.63;;;17.60;;
146;SDS011;45999;48.808;9.182;2024-01-10T13:47:56;24.67;;;17.50;;
146;SDS011;45999;48.808;9.182;2024-01-10T13:50:23;29.33;;;18.60;;
146;SDS011;45999;48.808;9.182;2024-01-10T13:52:50;26.67;;;18.10;;
146;SDS011;45999;48.808;9.182;2024-01-10T13:55:18;24.40;;;18.23;;
146;SDS011;45999;48.808;9.182;2024-01-10T13:57:45;29.20;;;19.50;;
146;SDS011;45999;48.808;9.182;2024-01-10T14:00:11;26.97;;;19.13;;
146;SDS011;45999;48.808;9.182;2024-01-10T14:02:39;29.00;;;18.87;;
146;SDS011;45999;48.808;9.182;2024-01-10T14:05:07;28.20;;;18.70;;
146;SDS011;45999;48.808;9.182;2024-01-10T14:07:34;26.63;;;18.40;;
146;SDS011;45999;48.808;9.182;2024-01-10T14:10:01;26.63;;;18.30;;
146;SDS011;45999;48.808;9.182;2024-01-10T14:12:28;26.03;;;18.20;;
146;SDS011;45999;48.808;9.182;2024-01-10T14:14:55;27.63;;;18.13;;
146;SDS011;45999;48.808;9.182;2024-01-10T14:17:22;28.13;;;19.33;;
146;SDS011;45999;48.808;9.182;2024-01-10T14:19:50;29.53;;;20.00;;
146;SDS011;45999;48.808;9.182;2024-01-10T14:22:17;26.30;;;18.77;;
146;SDS011;45999;48.808;9.182;2024-01-10T14:24:44;25.50;;;17.97;;
146;SDS011;45999;48.808;9.182;2024-01-10T14:27:11;28.10;;;19.20;;
146;SDS011;45999;48.808;9.182;2024-01-10T14:29:38;26.00;;;18.00;;
146;SDS011;45999;48.808;9.182;2024-01-10T14:32:04;24.97;;;18.03;;
146;SDS011;45999;48.808;9.182;2024-01-10T14:34:31;29.23;;;19.20;;
146;SDS011;45999;48.808;9.182;2024-01-10T14:36:57;22.90;;;17.37;;
146;SDS011;45999;48.808;9.182;2024-01-10T14:39:23;27.60;;;18.27;;
146;SDS011;45999;48.808;9.182;2024-01-10T14:41:50;27.43;;;18.20;;
146;SDS011;45999;48.808;9.182;2024-01-10T14:44:16;28.93;;;19.03;;
146;SDS011;45999;48.808;9.182;2024-01-10T14:46:42;28.17;;;18.73;;
146;SDS011;45999;48.808;9.182;2024-01-10T14:49:09;27.33;;;18.03;;
146;SDS011;45999;48.808;9.182;2024-01-10T14:51:35;27.37;;;18.87;;
146;SDS011;45999;48.808;9.182;2024-01-10T14:54:02;30.47;;;19.00;;
146;SDS011;45999;48.808;9.182;2024-01-10T14:56:28;27.47;;;18.93;;
146;SDS011;45999;48.808;9.182;2024-01-10T14:58:55;29.83;;;18.70;;
146;SDS011;45999;48.808;9.182;2024-01-10T15:01:21;25.10;;;18.07;;
146;SDS011;45999;48.808;9.182;2024-01-10T15:03:47;29.70;;;18.57;;
146;SDS011;45999;48.808;9.182;2024-01-10T15:06:16;23.80;;;17.07;;
146;SDS011;45999;48.808;9.182;2024-01-10T15:08:43;29.73;;;17.97;;
146;SDS011;45999;48.808;9.182;2024-01-10T15:11:09;24.10;;;17.03;;
146;SDS011;45999;48.808;9.182;2024-01-10T15:13:36;26.77;;;18.80;;
146;SDS011;45999;48.808;9.182;2024-01-10T15:16:03;31.60;;;19.30;;
146;SDS011;45999;48.808;9.182;2024-01-10T15:18:29;26.47;;;18.83;;
146;SDS011;45999;48.808;9.182;2024-01-10T15:20:56;27.33;;;18.60;;